Time;durP1;ratioP1;P1;durP2;ratioP2;P2;SDS_P1;SDS_P2;PMS_P1;PMS_P2;Temp;Humidity;BMP_temperature;BMP_pressure;BME280_temperature;BME280_humidity;BME280_pressure;Samples;Min_cycle;Max_cycle;Signal;HPM_P1;HPM_P2
2023/08/10 00:07:30;;;;;;;4.90;4.30;;;;;;;11.45;82.54;98906.64;435201;1255;97437;-41
2023/08/10 00:17:37;;;;;;;15.50;5.10;;;;;;;11.41;82.74;98907.70;435228;1255;109992;-42
2023/08/10 00:27:44;;;;;;;4.30;3.60;;;;;;;11.40;82.95;98909.76;435087;1255;210924;-40
2023/08/10 00:37:51;;;;;;;6.00;4.00;;;;;;;11.37;83.13;98912.12;435399;1250;97899;-42
2023/08/10 01:08:12;;;;;;;3.70;3.40;;;;;;;11.20;83.42;98928.79;435387;1259;111427;-42
2023/08/10 01:18:27;;;;;;;4.00;3.60;;;;;;;11.12;83.47;98929.27;435088;1250;107931;-42
2023/08/10 01:38:42;;;;;;;5.30;4.70;;;;;;;10.97;83.74;98938.02;435301;1256;108617;-42
2023/08/10 01:59:00;;;;;;;8.80;7.40;;;;;;;11.01;84.21;98943.86;435264;1253;111783;-41
2023/08/10 02:09:08;;;;;;;8.60;7.00;;;;;;;11.01;84.46;98948.58;435408;1263;108207;-41
2023/08/10 02:19:14;;;;;;;8.70;6.40;;;;;;;11.10;84.65;98948.54;435203;1253;99217;-42
2023/08/10 02:29:21;;;;;;;7.00;5.80;;;;;;;11.14;84.56;98951.98;435149;1256;107249;-41
2023/08/10 02:49:35;;;;;;;6.30;5.30;;;;;;;10.95;84.56;98954.38;435176;1253;110842;-42
2023/08/10 02:59:42;;;;;;;8.80;6.20;;;;;;;10.91;84.96;98956.30;435353;1251;107628;-43
2023/08/10 03:09:50;;;;;;;6.10;5.10;;;;;;;10.92;85.14;98958.86;435454;1251;97982;-41
2023/08/10 03:19:57;;;;;;;10.10;7.70;;;;;;;10.91;85.13;98969.90;435306;1263;108345;-41
2023/08/10 03:30:06;;;;;;;12.20;7.00;;;;;;;10.90;85.30;98978.70;435222;1253;99228;-41
2023/08/10 03:40:11;;;;;;;9.70;7.00;;;;;;;10.82;85.10;98983.34;435198;1254;111982;-41
2023/08/10 03:50:18;;;;;;;9.60;6.60;;;;;;;10.84;85.32;98986.34;435246;1254;109276;-40
2023/08/10 04:00:25;;;;;;;11.40;7.80;;;;;;;10.87;85.32;98990.76;435277;1253;99852;-40
2023/08/10 04:10:31;;;;;;;7.00;6.00;;;;;;;10.85;85.38;99009.71;435358;1251;108460;-41
2023/08/10 04:20:39;;;;;;;9.20;6.00;;;;;;;10.85;85.34;99010.08;435276;1253;99237;-41
2023/08/10 04:30:45;;;;;;;14.30;7.50;;;;;;;10.83;85.65;99006.52;435236;1254;111798;-42
2023/08/10 04:40:53;;;;;;;11.10;8.70;;;;;;;10.93;85.89;99001.85;435221;1250;107576;-42
2023/08/10 05:01:06;;;;;;;22.50;11.40;;;;;;;11.69;86.09;99021.38;435407;1252;108503;-42
2023/08/10 05:11:12;;;;;;;29.00;11.50;;;;;;;12.45;86.18;99034.61;435490;1254;98406;-41
2023/08/10 05:21:19;;;;;;;14.50;9.70;;;;;;;13.11;85.74;99046.70;435235;1253;111368;-40
2023/08/10 05:31:27;;;;;;;16.50;10.60;;;;;;;13.75;85.73;99060.39;435258;1254;108286;-42
2023/08/10 05:41:34;;;;;;;26.10;15.00;;;;;;;14.03;85.47;99069.80;435419;1251;98039;-41
2023/08/10 05:51:41;;;;;;;28.90;16.30;;;;;;;14.45;85.32;99076.27;435409;1254;108347;-42
2023/08/10 06:01:49;;;;;;;24.90;14.90;;;;;;;14.93;85.48;99084.31;435316;1255;98586;-44
2023/08/10 06:11:55;;;;;;;15.80;12.10;;;;;;;16.41;85.71;99084.25;435201;1254;111199;-42
2023/08/10 06:22:01;;;;;;;10.60;9.10;;;;;;;17.20;84.84;99084.56;435389;1251;108198;-40
2023/08/10 06:32:10;;;;;;;11.00;9.70;;;;;;;17.65;83.77;99090.59;435367;1250;98728;-40
2023/08/10 07:02:30;;;;;;;10.60;8.50;;;;;;;19.48;81.69;99102.21;435407;1249;111145;-41
2023/08/10 07:12:37;;;;;;;10.20;8.40;;;;;;;20.11;80.64;99103.67;435249;1250;110162;-40
2023/08/10 07:22:45;;;;;;;6.10;5.60;;;;;;;20.95;80.13;99108.02;435194;1254;99220;-40
2023/08/10 07:32:53;;;;;;;5.80;3.80;;;;;;;21.58;79.18;99114.05;435365;1254;107975;-40
2023/08/10 07:42:59;;;;;;;3.20;2.70;;;;;;;22.46;77.15;99119.01;435303;1250;99301;-42
2023/08/10 08:03:10;;;;;;;3.80;1.80;;;;;;;22.32;73.38;99123.15;435404;1263;108611;-41
2023/08/10 08:13:19;;;;;;;6.30;2.30;;;;;;;22.23;70.85;99124.75;435410;1250;99224;-41
2023/08/10 08:33:32;;;;;;;2.70;1.90;;;;;;;21.02;70.85;99130.80;435350;1250;98834;-40
2023/08/10 08:53:46;;;;;;;2.80;2.10;;;;;;;22.33;67.88;99111.72;435308;1251;108602;-40
2023/08/10 09:03:54;;;;;;;4.80;1.80;;;;;;;21.98;66.20;99113.90;435434;1249;98814;-41
2023/08/10 09:14:10;;;;;;;;;;;;;;;21.35;64.93;99116.84;435264;1254;107005;-40
2023/08/10 09:24:17;;;;;;;1.60;0.80;;;;;;;21.48;63.41;99122.30;435443;1250;97984;-40
2023/08/10 09:34:27;;;;;;;4.20;0.90;;;;;;;21.64;61.43;99128.63;435295;1253;111350;-41
2023/08/10 09:54:47;;;;;;;4.70;1.30;;;;;;;22.91;59.42;99128.23;435377;1250;99202;-40
2023/08/10 10:04:53;;;;;;;2.00;1.20;;;;;;;23.48;57.97;99121.99;435408;1256;107096;-40
2023/08/10 10:15:00;;;;;;;4.10;1.10;;;;;;;23.55;56.56;99122.02;435348;1254;97986;-42
2023/08/10 10:35:21;;;;;;;7.00;1.30;;;;;;;21.88;56.77;99123.06;435441;1249;107494;-41
2023/08/10 10:45:28;;;;;;;2.50;1.40;;;;;;;21.60;57.10;99122.11;435484;1249;99241;-40
2023/08/10 10:55:39;;;;;;;;;;;;;;;21.53;55.73;99115.96;435534;1254;108307;-41
2023/08/10 11:15:52;;;;;;;3.80;1.60;;;;;;;21.91;52.40;99101.86;435527;1250;112300;-41
2023/08/10 11:36:06;;;;;;;1.20;1.00;;;;;;;21.68;53.42;99111.02;435537;1253;99260;-41
2023/08/10 11:46:12;;;;;;;6.10;1.90;;;;;;;21.64;54.59;99112.31;435377;1250;108290;-42
2023/08/10 12:06:26;;;;;;;1.90;1.30;;;;;;;21.70;54.97;99102.33;435548;1250;112532;-42
2023/08/10 12:16:34;;;;;;;2.40;1.40;;;;;;;22.23;54.30;99092.70;435427;1250;107722;-42
2023/08/10 12:26:40;;;;;;;;;;;;;;;22.60;53.31;99086.57;436190;1249;99142;-41
2023/08/10 12:36:49;;;;;;;1.80;1.10;;;;;;;22.57;53.39;99089.92;435609;1254;433772;-42
2023/08/10 12:46:57;;;;;;;1.80;1.20;;;;;;;22.97;52.71;99085.20;435836;1250;97999;-41
2023/08/10 12:57:03;;;;;;;3.90;1.20;;;;;;;22.46;51.79;99083.64;435251;1254;112847;-42
2023/08/10 13:07:11;;;;;;;3.20;1.00;;;;;;;22.03;52.26;99087.36;435282;1249;107391;-41
2023/08/10 13:27:24;;;;;;;3.60;1.40;;;;;;;21.96;52.28;99078.47;435360;1254;106183;-40
2023/08/10 13:37:33;;;;;;;2.40;1.30;;;;;;;21.65;51.99;99068.65;435301;1250;98679;-43
2023/08/10 13:57:50;;;;;;;1.60;1.00;;;;;;;21.54;52.94;99064.73;435283;1254;107356;-41
2023/08/10 14:07:57;;;;;;;6.90;1.00;;;;;;;21.57;52.72;99068.24;435354;1254;99218;-41
2023/08/10 14:18:04;;;;;;;9.00;1.80;;;;;;;21.86;52.22;99065.91;435328;1250;107389;-41
2023/08/10 14:28:11;;;;;;;1.80;0.70;;;;;;;22.17;50.41;99057.10;435432;1250;99284;-43
2023/08/10 14:38:17;;;;;;;3.50;0.90;;;;;;;22.09;49.56;99057.27;435406;1249;110937;-42
2023/08/10 14:48:27;;;;;;;3.60;1.00;;;;;;;22.26;49.33;99056.20;435431;1254;108441;-41
2023/08/10 14:58:34;;;;;;;2.40;1.10;;;;;;;22.27;48.64;99055.96;435469;1255;97909;-42
2023/08/10 15:18:48;;;;;;;1.70;1.00;;;;;;;21.90;49.43;99062.08;435280;1250;99154;-43
2023/08/10 15:28:55;;;;;;;4.60;1.10;;;;;;;21.80;50.23;99053.73;435209;1250;111644;-41
2023/08/10 15:39:03;;;;;;;3.50;1.40;;;;;;;22.17;50.46;99049.17;435365;1255;110504;-41
2023/08/10 15:49:10;;;;;;;1.60;0.90;;;;;;;22.17;49.35;99049.28;435262;1250;97959;-42
2023/08/10 15:59:17;;;;;;;6.90;1.40;;;;;;;22.03;48.92;99052.58;435398;1253;108983;-41
2023/08/10 16:09:24;;;;;;;2.30;1.40;;;;;;;21.87;48.87;99059.01;435371;1250;99221;-43
2023/08/10 16:19:33;;;;;;;2.30;1.10;;;;;;;21.59;48.76;99063.45;435531;1249;111348;-42
2023/08/10 16:29:40;;;;;;;1.20;1.10;;;;;;;21.33;48.94;99065.10;435263;1253;108206;-42
2023/08/10 16:49:53;;;;;;;6.40;1.40;;;;;;;20.84;49.95;99073.31;435476;1250;108305;-41
2023/08/10 17:00:01;;;;;;;1.60;1.30;;;;;;;20.65;50.19;99082.22;435538;1255;99498;-42
2023/08/10 17:10:10;;;;;;;4.00;1.40;;;;;;;20.45;50.35;99081.34;435293;1250;112963;-43
2023/08/10 17:20:17;;;;;;;2.50;1.40;;;;;;;20.18;50.73;99085.84;435387;1249;107649;-42
2023/08/10 17:30:24;;;;;;;4.30;1.10;;;;;;;19.78;51.20;99098.37;435274;1250;98834;-42
2023/08/10 17:40:31;;;;;;;7.40;1.70;;;;;;;19.19;52.36;99103.31;435371;1250;108744;-43
2023/08/10 17:50:38;;;;;;;5.90;1.40;;;;;;;18.69;53.86;99108.69;435387;1256;98603;-43
2023/08/10 18:10:50;;;;;;;8.20;2.80;;;;;;;17.56;56.09;99123.98;435273;1253;109278;-41
2023/08/10 18:21:01;;;;;;;4.30;1.80;;;;;;;17.16;56.95;99127.14;435361;1253;99265;-42
2023/08/10 18:31:08;;;;;;;8.80;2.10;;;;;;;16.87;58.13;99133.19;435446;1253;107126;-42
2023/08/10 18:41:15;;;;;;;8.00;3.10;;;;;;;16.66;59.38;99141.25;435323;1250;99224;-41
2023/08/10 19:01:28;;;;;;;5.50;2.80;;;;;;;15.84;60.76;99155.15;435305;1250;106573;-42
2023/08/10 19:11:35;;;;;;;6.80;3.30;;;;;;;15.55;61.46;99157.64;435401;1254;99254;-43
2023/08/10 19:21:42;;;;;;;12.00;4.00;;;;;;;15.33;62.15;99162.42;435208;1255;108297;-42
2023/08/10 19:31:49;;;;;;;8.90;4.20;;;;;;;15.14;62.79;99161.86;435266;1251;99224;-42
2023/08/10 19:41:55;;;;;;;9.40;4.20;;;;;;;15.05;63.55;99169.77;435475;1253;113034;-42
2023/08/10 19:52:02;;;;;;;10.40;5.00;;;;;;;14.91;64.19;99171.29;435186;1250;107878;-42
2023/08/10 20:12:16;;;;;;;9.30;6.30;;;;;;;14.67;65.46;99178.60;435327;1253;107383;-42
2023/08/10 20:22:25;;;;;;;13.10;7.50;;;;;;;14.59;66.40;99181.66;435353;1250;99240;-42
2023/08/10 20:32:32;;;;;;;28.50;10.30;;;;;;;14.48;66.69;99185.59;435472;1254;111496;-42
2023/08/10 20:42:40;;;;;;;22.60;11.60;;;;;;;14.38;67.15;99185.05;435256;1254;106772;-43
2023/08/10 20:52:48;;;;;;;31.50;16.10;;;;;;;14.35;67.53;99185.86;435257;1254;97975;-41
2023/08/10 21:02:56;;;;;;;26.70;16.60;;;;;;;14.25;68.02;99183.04;435390;1264;108467;-42
2023/08/10 21:13:03;;;;;;;31.00;16.50;;;;;;;14.17;68.52;99178.90;435551;1254;101484;-40
2023/08/10 21:23:11;;;;;;;34.50;15.70;;;;;;;14.04;68.86;99180.55;435468;1251;110850;-42
2023/08/10 21:53:34;;;;;;;19.90;12.30;;;;;;;13.62;69.88;99173.09;435293;1257;109390;-42
2023/08/10 22:03:46;;;;;;;24.00;11.90;;;;;;;13.48;70.50;99178.82;435308;1263;97949;-43
2023/08/10 22:13:54;;;;;;;17.00;10.10;;;;;;;13.25;71.00;99180.56;435142;1250;111553;-43
2023/08/10 22:24:02;;;;;;;21.00;11.60;;;;;;;13.12;71.37;99179.19;435261;1251;107433;-42
2023/08/10 22:34:09;;;;;;;17.60;10.80;;;;;;;13.01;71.78;99178.05;435213;1254;99252;-42
2023/08/10 22:44:16;;;;;;;19.90;11.00;;;;;;;12.94;72.08;99183.47;435210;1263;108451;-42
2023/08/10 22:54:25;;;;;;;18.80;11.30;;;;;;;12.88;72.56;99182.17;435333;1253;99215;-42
2023/08/10 23:04:32;;;;;;;18.00;12.20;;;;;;;12.78;72.69;99180.20;435286;1262;112059;-42
2023/08/10 23:24:46;;;;;;;17.60;8.40;;;;;;;12.46;73.22;99178.36;435261;1255;99257;-42
2023/08/10 23:34:53;;;;;;;13.60;8.50;;;;;;;12.42;73.57;99178.84;435200;1263;107163;-42
2023/08/10 23:45:00;;;;;;;13.50;7.90;;;;;;;12.48;73.70;99173.27;435259;1253;99883;-41
